Time;durP1;ratioP1;P1;durP2;ratioP2;P2;SDS_P1;SDS_P2;PMS_P1;PMS_P2;Temp;Humidity;BMP_temperature;BMP_pressure;BME280_temperature;BME280_humidity;BME280_pressure;Samples;Min_cycle;Max_cycle;Signal;HPM_P1;HPM_P2
2021/08/10 00:00:28;;;;;;;0.43;0.43;;;11.10;90.70;;;;;;2049532;28;20183;-66
2021/08/10 00:01:29;;;;;;;0.50;0.50;;;11.10;90.80;;;;;;2049547;28;20180;-66
2021/08/10 00:02:29;;;;;;;0.63;0.63;;;11.10;90.80;;;;;;2049437;29;20195;-66
2021/08/10 00:03:30;;;;;;;0.60;0.60;;;11.10;90.80;;;;;;2049444;28;20212;-66
2021/08/10 00:04:31;;;;;;;0.87;0.87;;;11.10;90.80;;;;;;2051998;28;20676;-66
2021/08/10 00:05:32;;;;;;;0.53;0.53;;;11.00;90.80;;;;;;2056923;28;20187;-66
2021/08/10 00:06:32;;;;;;;0.60;0.60;;;11.10;90.80;;;;;;2056893;28;20759;-66
2021/08/10 00:07:33;;;;;;;0.67;0.67;;;11.10;90.80;;;;;;2057361;28;20179;-66
2021/08/10 00:08:34;;;;;;;0.90;0.90;;;11.10;90.80;;;;;;2056828;28;20203;-66
2021/08/10 00:09:35;;;;;;;0.30;0.30;;;11.10;90.80;;;;;;2048899;28;20934;-65
2021/08/10 00:10:36;;;;;;;0.73;0.73;;;11.10;90.80;;;;;;2056830;28;20275;-66
2021/08/10 00:11:36;;;;;;;0.70;0.70;;;11.10;90.80;;;;;;2057433;28;20175;-66
2021/08/10 00:12:37;;;;;;;0.60;0.60;;;11.00;90.90;;;;;;2057436;28;20620;-66
2021/08/10 00:13:38;;;;;;;0.40;0.40;;;11.00;90.90;;;;;;2057279;28;20254;-66
2021/08/10 00:14:38;;;;;;;1.80;0.80;;;11.00;91.00;;;;;;2056797;28;20183;-66
2021/08/10 00:15:39;;;;;;;0.80;0.80;;;11.00;90.90;;;;;;2056787;28;20206;-66
2021/08/10 00:16:40;;;;;;;0.90;0.90;;;11.00;91.00;;;;;;2057511;28;20194;-65
2021/08/10 00:17:41;;;;;;;0.50;0.50;;;11.00;90.90;;;;;;2057166;28;20336;-66
2021/08/10 00:18:42;;;;;;;0.63;0.63;;;11.00;90.90;;;;;;2056785;28;20178;-65
2021/08/10 00:19:42;;;;;;;0.37;0.37;;;11.00;90.90;;;;;;2056702;28;20187;-66
2021/08/10 00:20:43;;;;;;;0.80;0.80;;;11.00;90.90;;;;;;2057388;28;20190;-65
2021/08/10 00:21:44;;;;;;;0.57;0.57;;;11.00;90.80;;;;;;2057255;28;20198;-66
2021/08/10 00:22:45;;;;;;;0.83;0.67;;;11.00;90.80;;;;;;2057243;28;20461;-66
2021/08/10 00:23:45;;;;;;;0.33;0.33;;;10.90;90.80;;;;;;2057248;28;20214;-66
2021/08/10 00:24:46;;;;;;;0.43;0.43;;;10.90;90.90;;;;;;2057259;28;20176;-66
2021/08/10 00:25:48;;;;;;;0.60;0.60;;;10.90;90.90;;;;;;2057353;28;20650;-66
2021/08/10 00:26:48;;;;;;;1.15;1.08;;;10.90;90.90;;;;;;2057394;28;20200;-66
2021/08/10 00:27:49;;;;;;;0.73;0.73;;;10.90;91.10;;;;;;2057307;28;20212;-66
2021/08/10 00:28:50;;;;;;;0.70;0.70;;;10.80;91.10;;;;;;2057400;28;20179;-66
2021/08/10 00:29:51;;;;;;;0.73;0.73;;;10.90;91.20;;;;;;2057153;28;20183;-66
2021/08/10 00:30:51;;;;;;;1.07;1.07;;;10.80;91.10;;;;;;2057464;28;20793;-66
2021/08/10 00:31:52;;;;;;;0.83;0.83;;;10.90;91.10;;;;;;2057134;28;20213;-66
2021/08/10 00:32:53;;;;;;;0.30;0.30;;;10.80;91.10;;;;;;2056702;28;20266;-66
2021/08/10 00:33:54;;;;;;;0.60;0.60;;;10.90;91.20;;;;;;2047729;28;20188;-65
2021/08/10 00:34:54;;;;;;;0.63;0.63;;;10.80;91.10;;;;;;2056701;28;20183;-66
2021/08/10 00:35:55;;;;;;;0.40;0.40;;;10.80;91.10;;;;;;2056604;28;20186;-66
2021/08/10 00:36:56;;;;;;;0.57;0.57;;;10.90;90.90;;;;;;2056634;28;20214;-66
2021/08/10 00:37:56;;;;;;;0.20;0.20;;;10.90;90.90;;;;;;2057183;28;20701;-66
2021/08/10 00:38:57;;;;;;;1.03;0.83;;;10.90;90.90;;;;;;2056605;28;20230;-66
2021/08/10 00:39:58;;;;;;;0.67;0.67;;;10.90;90.80;;;;;;2056366;28;20179;-66
2021/08/10 00:41:00;;;;;;;0.63;0.45;;;10.80;90.90;;;;;;2056725;28;20186;-66
2021/08/10 00:42:02;;;;;;;0.85;0.50;;;10.80;91.00;;;;;;2056352;28;20738;-66
2021/08/10 00:43:03;;;;;;;0.68;0.68;;;10.90;90.90;;;;;;2056502;28;20217;-66
2021/08/10 00:44:04;;;;;;;0.70;0.70;;;10.90;90.90;;;;;;2056676;28;20289;-66
2021/08/10 00:45:06;;;;;;;0.50;0.50;;;10.80;91.00;;;;;;2057218;28;20255;-66
2021/08/10 00:46:10;;;;;;;0.50;0.50;;;10.80;91.00;;;;;;2057280;28;20187;-66
2021/08/10 00:47:11;;;;;;;0.40;0.40;;;10.80;91.00;;;;;;2057062;28;20175;-66
2021/08/10 00:48:12;;;;;;;1.33;0.87;;;10.80;91.10;;;;;;2056486;28;20674;-66
2021/08/10 00:49:12;;;;;;;0.73;0.73;;;10.80;91.10;;;;;;2056459;28;20190;-66
2021/08/10 00:50:13;;;;;;;0.60;0.60;;;10.80;91.10;;;;;;2057180;28;20178;-66
2021/08/10 00:51:14;;;;;;;0.70;0.70;;;10.80;91.10;;;;;;2056658;28;20654;-65
2021/08/10 00:52:15;;;;;;;0.65;0.65;;;10.80;91.00;;;;;;2048492;28;20441;-66
2021/08/10 00:53:17;;;;;;;0.55;0.55;;;10.80;91.00;;;;;;2056455;28;20643;-66
2021/08/10 00:54:19;;;;;;;0.50;0.50;;;10.80;90.90;;;;;;2057172;28;20653;-66
2021/08/10 00:55:19;;;;;;;0.57;0.57;;;10.90;90.80;;;;;;2057139;28;20266;-66
2021/08/10 00:56:20;;;;;;;3.03;0.50;;;10.90;90.80;;;;;;2057229;28;20202;-65
2021/08/10 00:57:21;;;;;;;0.98;0.80;;;10.80;90.90;;;;;;2057112;28;20214;-66
2021/08/10 00:58:22;;;;;;;0.63;0.40;;;10.80;90.90;;;;;;2057142;28;20218;-65
2021/08/10 00:59:23;;;;;;;0.93;0.87;;;10.80;90.90;;;;;;2056505;28;20191;-66
2021/08/10 01:00:23;;;;;;;0.97;0.93;;;10.80;90.80;;;;;;2056569;28;20553;-66
2021/08/10 01:01:24;;;;;;;0.60;0.50;;;10.80;91.00;;;;;;2056998;28;20719;-65
2021/08/10 01:02:25;;;;;;;0.50;0.50;;;10.80;91.00;;;;;;2057126;28;20202;-66
2021/08/10 01:03:26;;;;;;;0.70;0.67;;;10.80;91.10;;;;;;2057074;28;20201;-65
2021/08/10 01:04:27;;;;;;;5.20;0.88;;;10.70;91.20;;;;;;2057063;28;20196;-66
2021/08/10 01:05:30;;;;;;;0.70;0.70;;;10.70;91.30;;;;;;2057136;28;20183;-66
2021/08/10 01:07:17;;;;;;;0.95;0.90;;;10.70;91.40;;;;;;2056649;28;20187;-66
2021/08/10 01:09:15;;;;;;;0.63;0.63;;;10.70;91.40;;;;;;2057078;28;20186;-66
2021/08/10 01:10:27;;;;;;;1.30;0.52;;;10.70;91.50;;;;;;2048188;28;20186;-66
2021/08/10 01:12:07;;;;;;;0.75;0.75;;;10.80;91.60;;;;;;2057052;28;20253;-65
2021/08/10 01:13:31;;;;;;;14.25;0.93;;;10.80;91.60;;;;;;2056263;28;20666;-66
2021/08/10 01:14:50;;;;;;;0.77;0.77;;;10.80;91.60;;;;;;2051608;28;20171;-66
2021/08/10 01:16:03;;;;;;;0.43;0.43;;;10.80;91.50;;;;;;2056550;28;20264;-65
2021/08/10 01:17:22;;;;;;;0.70;0.70;;;10.80;91.50;;;;;;2056933;28;20210;-66
2021/08/10 01:18:34;;;;;;;1.17;1.08;;;10.80;91.50;;;;;;2056448;28;20178;-66
2021/08/10 01:19:55;;;;;;;1.25;0.73;;;10.80;91.60;;;;;;2049705;28;20205;-65
2021/08/10 01:21:20;;;;;;;0.50;0.50;;;10.80;91.60;;;;;;2056595;28;20517;-66
2021/08/10 01:22:23;;;;;;;0.45;0.45;;;10.80;91.70;;;;;;2056044;28;20704;-66
2021/08/10 01:23:28;;;;;;;0.70;0.70;;;10.80;91.70;;;;;;2048371;28;20208;-66
2021/08/10 01:24:35;;;;;;;0.28;0.28;;;10.80;91.70;;;;;;2049014;28;20189;-65
2021/08/10 01:26:31;;;;;;;0.65;0.65;;;10.80;91.80;;;;;;2049260;28;20173;-66
2021/08/10 01:28:14;;;;;;;0.70;0.70;;;10.80;91.80;;;;;;2030974;29;20597;-64
2021/08/10 01:29:30;;;;;;;0.30;0.30;;;10.80;91.70;;;;;;2028095;28;20169;-66
2021/08/10 01:31:06;;;;;;;0.50;0.50;;;10.80;91.80;;;;;;2050348;28;20258;-65
2021/08/10 01:32:07;;;;;;;0.40;0.40;;;10.80;91.80;;;;;;2053728;28;20689;-66
2021/08/10 01:33:08;;;;;;;2.10;0.80;;;10.90;91.80;;;;;;2056886;28;20186;-66
2021/08/10 01:34:38;;;;;;;3.05;0.95;;;10.90;91.80;;;;;;2048187;29;20194;-67
2021/08/10 01:35:40;;;;;;;3.65;1.00;;;10.90;91.60;;;;;;2048048;28;20167;-65
2021/08/10 01:36:43;;;;;;;0.60;0.60;;;10.90;91.60;;;;;;2048238;28;20234;-65
2021/08/10 01:37:50;;;;;;;0.93;0.93;;;10.90;91.50;;;;;;2056198;28;20190;-66
2021/08/10 01:38:56;;;;;;;0.63;0.50;;;10.90;91.40;;;;;;2056194;28;20187;-66
2021/08/10 01:40:04;;;;;;;1.10;1.10;;;10.90;91.40;;;;;;2049157;28;20171;-66
2021/08/10 01:41:06;;;;;;;0.47;0.47;;;10.90;91.40;;;;;;2041304;29;20242;-65
2021/08/10 01:42:08;;;;;;;0.47;0.47;;;11.00;91.40;;;;;;2056971;28;20211;-66
2021/08/10 01:43:09;;;;;;;0.40;0.40;;;11.00;91.40;;;;;;2049194;28;20249;-66
2021/08/10 01:44:11;;;;;;;1.70;0.43;;;11.00;91.50;;;;;;2049098;28;20185;-66
2021/08/10 01:45:12;;;;;;;1.13;1.05;;;10.90;91.50;;;;;;2048948;28;20187;-66
2021/08/10 01:46:13;;;;;;;0.57;0.50;;;10.90;91.50;;;;;;2049038;29;20175;-66
2021/08/10 01:47:15;;;;;;;1.10;1.00;;;10.90;91.50;;;;;;2056118;28;20174;-66
2021/08/10 01:48:17;;;;;;;0.68;0.68;;;10.90;91.50;;;;;;2056826;28;20179;-65
2021/08/10 01:49:19;;;;;;;0.45;0.45;;;10.90;91.50;;;;;;2056021;28;20189;-66
2021/08/10 01:50:22;;;;;;;0.50;0.50;;;10.80;91.60;;;;;;2048268;28;20416;-66
2021/08/10 01:51:26;;;;;;;0.82;0.82;;;10.90;91.50;;;;;;2048418;28;20194;-66
2021/08/10 01:52:28;;;;;;;0.90;0.90;;;10.80;91.40;;;;;;2048557;28;20266;-66
2021/08/10 01:53:30;;;;;;;0.50;0.40;;;10.80;91.40;;;;;;2048134;28;20270;-66
2021/08/10 01:54:31;;;;;;;0.60;0.60;;;10.80;91.30;;;;;;2048328;28;20592;-66
2021/08/10 01:55:34;;;;;;;0.43;0.43;;;10.80;91.30;;;;;;2042435;29;20288;-66
2021/08/10 01:56:37;;;;;;;0.60;0.60;;;10.70;91.30;;;;;;2048103;29;20191;-66
2021/08/10 01:57:40;;;;;;;0.40;0.40;;;10.70;91.30;;;;;;2047722;29;20719;-66
2021/08/10 01:58:41;;;;;;;0.40;0.40;;;10.70;91.20;;;;;;2040781;29;20200;-66
2021/08/10 01:59:48;;;;;;;0.75;0.75;;;10.70;91.10;;;;;;2039880;29;20678;-65
2021/08/10 02:00:51;;;;;;;1.08;0.60;;;10.70;91.10;;;;;;2040296;29;20671;-66
2021/08/10 02:01:53;;;;;;;0.30;0.30;;;10.70;91.10;;;;;;2048122;28;20211;-65
2021/08/10 02:02:54;;;;;;;0.50;0.50;;;10.70;91.00;;;;;;2040127;29;20242;-65
2021/08/10 02:03:56;;;;;;;0.60;0.60;;;10.70;91.00;;;;;;2032433;29;20180;-66
2021/08/10 02:04:57;;;;;;;0.45;0.45;;;10.60;91.10;;;;;;2032378;29;20183;-65
2021/08/10 02:05:58;;;;;;;0.60;0.60;;;10.60;91.20;;;;;;2040239;29;20186;-66
2021/08/10 02:07:01;;;;;;;1.20;1.10;;;10.60;91.30;;;;;;2032294;29;20174;-66
2021/08/10 02:08:02;;;;;;;0.65;0.65;;;10.60;91.30;;;;;;2040072;29;20199;-66
2021/08/10 02:09:05;;;;;;;1.10;1.05;;;10.60;91.30;;;;;;2048061;29;20191;-66
2021/08/10 02:10:06;;;;;;;2.20;1.17;;;10.50;91.30;;;;;;2047957;29;20200;-66
2021/08/10 02:11:08;;;;;;;0.57;0.57;;;10.50;91.50;;;;;;2048027;29;20186;-66
2021/08/10 02:12:10;;;;;;;1.73;1.15;;;10.50;91.40;;;;;;2032440;29;20620;-66
2021/08/10 02:13:14;;;;;;;0.45;0.45;;;10.50;91.40;;;;;;2040170;29;20222;-66
2021/08/10 02:14:23;;;;;;;0.75;0.75;;;10.50;91.50;;;;;;2040013;29;20693;-66
2021/08/10 02:15:24;;;;;;;0.52;0.52;;;10.50;91.50;;;;;;2040264;29;20686;-65
2021/08/10 02:16:26;;;;;;;0.63;0.55;;;10.40;91.60;;;;;;2032276;29;20309;-66
2021/08/10 02:17:27;;;;;;;0.40;0.40;;;10.40;91.70;;;;;;2024803;29;20707;-65
2021/08/10 02:18:28;;;;;;;6.40;0.80;;;10.40;91.70;;;;;;2040225;29;20186;-66
2021/08/10 02:19:30;;;;;;;1.40;0.50;;;10.40;91.70;;;;;;2040762;29;20659;-66
2021/08/10 02:20:31;;;;;;;1.23;1.02;;;10.40;91.60;;;;;;2039993;29;20182;-65
2021/08/10 02:21:44;;;;;;;0.52;0.52;;;10.40;91.60;;;;;;2040072;29;20183;-66
2021/08/10 02:22:48;;;;;;;1.02;0.68;;;10.40;91.60;;;;;;2040157;29;20190;-66
2021/08/10 02:23:51;;;;;;;1.65;1.08;;;10.40;91.60;;;;;;2032596;29;20667;-65
2021/08/10 02:25:05;;;;;;;0.57;0.57;;;10.40;91.60;;;;;;2032617;29;20554;-66
2021/08/10 02:26:06;;;;;;;0.70;0.70;;;10.40;91.70;;;;;;2041574;29;20182;-67
2021/08/10 02:27:11;;;;;;;0.47;0.47;;;10.40;91.70;;;;;;2040006;29;20175;-65
2021/08/10 02:28:15;;;;;;;0.85;0.50;;;10.40;91.90;;;;;;2040209;29;20163;-66
2021/08/10 02:29:17;;;;;;;0.43;0.43;;;10.40;91.90;;;;;;2040133;29;20199;-66
2021/08/10 02:30:29;;;;;;;0.40;0.40;;;10.40;92.20;;;;;;2032409;29;20629;-67
2021/08/10 02:31:31;;;;;;;0.95;0.95;;;10.40;92.00;;;;;;2033731;29;20185;-66
2021/08/10 02:32:33;;;;;;;0.40;0.40;;;10.40;92.00;;;;;;2040145;29;20704;-66
2021/08/10 02:33:34;;;;;;;1.25;1.13;;;10.40;92.20;;;;;;2040115;29;20207;-66
2021/08/10 02:34:37;;;;;;;0.77;0.77;;;10.40;92.20;;;;;;2040105;29;20192;-66
2021/08/10 02:35:40;;;;;;;0.43;0.43;;;10.40;92.20;;;;;;2040795;29;20553;-66
2021/08/10 02:36:42;;;;;;;0.40;0.40;;;10.50;92.20;;;;;;2040667;29;20219;-65
2021/08/10 02:37:46;;;;;;;1.15;1.02;;;10.50;92.20;;;;;;2047821;29;20721;-65
2021/08/10 02:38:48;;;;;;;0.80;0.80;;;10.50;92.20;;;;;;2047983;29;20184;-66
2021/08/10 02:39:51;;;;;;;0.90;0.90;;;10.50;92.50;;;;;;2040050;29;20188;-66
2021/08/10 02:40:56;;;;;;;1.05;0.95;;;10.50;92.50;;;;;;2032444;29;20218;-66
2021/08/10 02:41:57;;;;;;;0.77;0.40;;;10.50;92.50;;;;;;2040113;29;20272;-66
2021/08/10 02:43:00;;;;;;;0.95;0.95;;;10.50;92.30;;;;;;2031939;29;20180;-67
2021/08/10 02:44:03;;;;;;;1.58;0.95;;;10.50;92.30;;;;;;2032675;29;20266;-66
2021/08/10 02:45:06;;;;;;;0.90;0.63;;;10.50;92.30;;;;;;2048089;29;20186;-66
2021/08/10 02:46:06;;;;;;;0.80;0.80;;;10.50;92.30;;;;;;2040272;29;20210;-66
2021/08/10 02:47:07;;;;;;;1.30;0.53;;;10.50;92.30;;;;;;2040115;29;20199;-65
2021/08/10 02:48:14;;;;;;;2.53;1.17;;;10.50;92.40;;;;;;2040868;29;20173;-68
2021/08/10 02:49:15;;;;;;;0.60;0.60;;;10.50;92.40;;;;;;2050993;28;20187;-65
2021/08/10 02:50:16;;;;;;;0.47;0.47;;;10.50;92.30;;;;;;2056417;28;20529;-67
2021/08/10 02:51:16;;;;;;;0.50;0.50;;;10.50;92.30;;;;;;2055682;28;20202;-66
2021/08/10 02:52:17;;;;;;;0.60;0.60;;;10.50;92.30;;;;;;2055923;28;20197;-66
2021/08/10 02:53:18;;;;;;;0.70;0.70;;;10.60;92.10;;;;;;2056582;28;20194;-65
2021/08/10 02:54:19;;;;;;;0.53;0.53;;;10.60;92.10;;;;;;2056723;28;20338;-66
2021/08/10 02:55:21;;;;;;;0.63;0.50;;;10.60;92.10;;;;;;2056755;28;20183;-66
2021/08/10 02:56:25;;;;;;;0.57;0.57;;;10.60;92.10;;;;;;2056095;28;20189;-65
2021/08/10 02:57:55;;;;;;;1.45;0.88;;;10.60;92.20;;;;;;2048945;28;20585;-66
2021/08/10 02:59:04;;;;;;;1.10;1.10;;;10.60;92.20;;;;;;2045854;28;20228;-65
2021/08/10 03:00:11;;;;;;;0.35;0.35;;;10.60;92.40;;;;;;2057506;28;20176;-66
2021/08/10 03:01:16;;;;;;;0.55;0.55;;;10.60;92.50;;;;;;2050295;28;20183;-65
2021/08/10 03:02:20;;;;;;;1.05;0.95;;;10.60;92.40;;;;;;2057446;28;20305;-66
2021/08/10 03:03:26;;;;;;;0.52;0.52;;;10.60;92.40;;;;;;2057882;28;20297;-65
2021/08/10 03:04:30;;;;;;;0.60;0.60;;;10.60;92.30;;;;;;2058100;28;20630;-68
2021/08/10 03:05:34;;;;;;;0.73;0.57;;;10.60;92.10;;;;;;2057479;28;20217;-66
2021/08/10 03:06:36;;;;;;;0.55;0.55;;;10.60;92.00;;;;;;2049851;28;20981;-65
2021/08/10 03:07:41;;;;;;;0.95;0.95;;;10.50;91.90;;;;;;2057268;28;20190;-66
2021/08/10 03:08:47;;;;;;;0.30;0.30;;;10.50;91.90;;;;;;2057411;28;20167;-66
2021/08/10 03:09:49;;;;;;;0.30;0.30;;;10.40;91.90;;;;;;2049804;28;20183;-65
2021/08/10 03:10:51;;;;;;;0.60;0.60;;;10.40;91.80;;;;;;2057323;28;20241;-66
2021/08/10 03:11:55;;;;;;;0.40;0.40;;;10.40;91.80;;;;;;2057248;28;20213;-65
2021/08/10 03:12:58;;;;;;;0.50;0.50;;;10.40;91.80;;;;;;2057361;28;20175;-66
2021/08/10 03:14:01;;;;;;;0.70;0.70;;;10.40;91.90;;;;;;2049698;28;20195;-65
2021/08/10 03:15:03;;;;;;;0.45;0.45;;;10.40;91.80;;;;;;2049648;28;20175;-65
2021/08/10 03:16:06;;;;;;;1.02;0.80;;;10.40;92.00;;;;;;2057316;28;20535;-66
2021/08/10 03:17:09;;;;;;;0.32;0.32;;;10.40;92.10;;;;;;2057887;28;20189;-65
2021/08/10 03:18:14;;;;;;;0.35;0.35;;;10.40;92.20;;;;;;2058021;28;20209;-66
2021/08/10 03:19:16;;;;;;;0.85;0.73;;;10.40;92.30;;;;;;2049219;29;20167;-66
2021/08/10 03:20:18;;;;;;;0.75;0.75;;;10.40;92.30;;;;;;2041652;28;20604;-65
2021/08/10 03:21:23;;;;;;;1.65;0.60;;;10.40;92.40;;;;;;2049469;28;20238;-66
2021/08/10 03:22:26;;;;;;;0.93;0.93;;;10.40;92.40;;;;;;2057093;28;20210;-66
2021/08/10 03:23:29;;;;;;;0.98;0.73;;;10.40;92.30;;;;;;2057243;28;20585;-66
2021/08/10 03:24:30;;;;;;;1.10;1.10;;;10.50;92.30;;;;;;2049561;28;20568;-66
2021/08/10 03:25:32;;;;;;;0.70;0.63;;;10.50;92.20;;;;;;2049438;28;20175;-66
2021/08/10 03:26:35;;;;;;;0.70;0.70;;;10.50;92.30;;;;;;2049304;28;20553;-66
2021/08/10 03:27:37;;;;;;;0.60;0.60;;;10.50;92.30;;;;;;2057176;28;20217;-66
2021/08/10 03:28:41;;;;;;;0.50;0.50;;;10.50;92.20;;;;;;2056971;28;20175;-66
2021/08/10 03:29:43;;;;;;;0.93;0.93;;;10.50;92.20;;;;;;2057330;28;20265;-66
2021/08/10 03:30:44;;;;;;;2.60;0.73;;;10.50;92.20;;;;;;2057039;28;20178;-66
2021/08/10 03:31:45;;;;;;;1.10;1.00;;;10.50;92.20;;;;;;2049245;28;20668;-65
2021/08/10 03:32:51;;;;;;;0.77;0.77;;;10.50;92.10;;;;;;2057038;28;20183;-65
2021/08/10 03:33:52;;;;;;;1.45;0.90;;;10.50;92.00;;;;;;2057233;28;20221;-65
2021/08/10 03:34:54;;;;;;;0.93;0.93;;;10.50;92.00;;;;;;2049125;28;20670;-66
2021/08/10 03:35:56;;;;;;;0.40;0.40;;;10.50;92.00;;;;;;2049305;28;20616;-66
2021/08/10 03:37:00;;;;;;;0.80;0.80;;;10.50;91.90;;;;;;2049286;28;20258;-66
2021/08/10 03:38:01;;;;;;;0.95;0.77;;;10.40;91.80;;;;;;2057168;28;20190;-66
2021/08/10 03:39:02;;;;;;;1.47;0.77;;;10.40;91.90;;;;;;2057689;28;20175;-66
2021/08/10 03:40:06;;;;;;;0.80;0.52;;;10.40;91.80;;;;;;2057640;28;20252;-66
2021/08/10 03:41:07;;;;;;;0.35;0.30;;;10.40;91.80;;;;;;2057815;28;20174;-66
2021/08/10 03:42:08;;;;;;;0.68;0.68;;;10.40;91.70;;;;;;2057735;28;20210;-66
2021/08/10 03:43:10;;;;;;;0.40;0.40;;;10.30;91.70;;;;;;2057672;28;20646;-66
2021/08/10 03:44:11;;;;;;;1.58;1.25;;;10.30;91.80;;;;;;2057658;28;20184;-66
2021/08/10 03:45:13;;;;;;;0.40;0.40;;;10.30;91.90;;;;;;2057020;28;20623;-66
2021/08/10 03:46:14;;;;;;;0.60;0.60;;;10.30;92.00;;;;;;2057197;28;20434;-65
2021/08/10 03:47:17;;;;;;;0.63;0.63;;;10.30;92.00;;;;;;2057477;28;20177;-66
2021/08/10 03:48:19;;;;;;;0.75;0.75;;;10.30;92.10;;;;;;2057070;28;20177;-66
2021/08/10 03:49:23;;;;;;;0.60;0.60;;;10.30;92.20;;;;;;2049169;28;20217;-65
2021/08/10 03:50:25;;;;;;;1.27;0.55;;;10.30;92.20;;;;;;2057046;28;20189;-66
2021/08/10 03:51:28;;;;;;;0.30;0.30;;;10.30;92.30;;;;;;2057062;28;20184;-66
2021/08/10 03:52:29;;;;;;;0.75;0.65;;;10.30;92.30;;;;;;2054569;28;20186;-66
2021/08/10 03:53:31;;;;;;;1.07;0.67;;;10.30;92.30;;;;;;2049087;28;20725;-65
2021/08/10 03:54:31;;;;;;;1.00;0.90;;;10.30;92.20;;;;;;2049124;29;20187;-66
2021/08/10 03:55:34;;;;;;;0.90;0.90;;;10.40;92.20;;;;;;2049598;28;20213;-65
2021/08/10 03:56:38;;;;;;;1.83;0.65;;;10.30;92.10;;;;;;2041085;29;20769;-66
2021/08/10 03:57:40;;;;;;;0.35;0.35;;;10.40;92.00;;;;;;2041437;29;20687;-66
2021/08/10 03:58:41;;;;;;;1.13;0.95;;;10.40;92.00;;;;;;2041249;29;20770;-66
2021/08/10 03:59:47;;;;;;;0.43;0.43;;;10.30;92.00;;;;;;2041254;29;20247;-65
2021/08/10 04:00:49;;;;;;;0.50;0.50;;;10.40;92.00;;;;;;2041639;29;20185;-65
2021/08/10 04:01:53;;;;;;;4.53;0.80;;;10.30;92.10;;;;;;2041187;29;20206;-66
2021/08/10 04:02:54;;;;;;;1.02;0.93;;;10.30;92.10;;;;;;2041347;29;20187;-66
2021/08/10 04:03:56;;;;;;;0.52;0.52;;;10.30;92.00;;;;;;2041114;29;20214;-66
2021/08/10 04:04:57;;;;;;;0.93;0.82;;;10.30;92.00;;;;;;2041398;29;20188;-65
2021/08/10 04:05:59;;;;;;;0.73;0.73;;;10.30;92.20;;;;;;2041155;29;20175;-65
2021/08/10 04:07:03;;;;;;;1.08;0.73;;;10.30;92.30;;;;;;2041155;29;20188;-64
2021/08/10 04:08:05;;;;;;;0.80;0.68;;;10.30;92.20;;;;;;2041287;29;20212;-65
2021/08/10 04:09:07;;;;;;;0.85;0.85;;;10.30;92.20;;;;;;2041321;29;20770;-65
2021/08/10 04:10:09;;;;;;;0.68;0.60;;;10.30;92.20;;;;;;2041112;29;20290;-65
2021/08/10 04:11:10;;;;;;;0.47;0.47;;;10.40;92.10;;;;;;2048986;29;20250;-65
2021/08/10 04:12:12;;;;;;;1.13;1.03;;;10.30;91.90;;;;;;2049423;28;20206;-65
2021/08/10 04:13:13;;;;;;;0.85;0.82;;;10.30;92.00;;;;;;2049716;28;20190;-65
2021/08/10 04:14:16;;;;;;;0.40;0.40;;;10.30;92.00;;;;;;2048928;29;20694;-65
2021/08/10 04:15:17;;;;;;;0.80;0.80;;;10.40;92.10;;;;;;2041197;29;20181;-65
2021/08/10 04:16:19;;;;;;;0.20;0.20;;;10.40;92.20;;;;;;2048824;29;20180;-65
2021/08/10 04:17:25;;;;;;;1.83;1.10;;;10.40;92.20;;;;;;2040665;29;20183;-64
2021/08/10 04:18:26;;;;;;;1.27;1.00;;;10.40;92.10;;;;;;2034253;29;20232;-65
2021/08/10 04:19:36;;;;;;;4.50;1.08;;;10.40;92.10;;;;;;2048685;29;20187;-64
2021/08/10 04:20:36;;;;;;;0.77;0.73;;;10.50;92.60;;;;;;2048676;28;20191;-65
2021/08/10 04:21:37;;;;;;;0.63;0.63;;;10.50;92.00;;;;;;2048785;28;20224;-65
2021/08/10 04:22:40;;;;;;;0.70;0.70;;;10.50;92.10;;;;;;2048690;29;20562;-65
2021/08/10 04:23:41;;;;;;;0.55;0.55;;;10.60;92.00;;;;;;2041172;29;20219;-64
2021/08/10 04:24:42;;;;;;;0.77;0.77;;;10.60;91.90;;;;;;2048711;29;20585;-65
2021/08/10 04:25:43;;;;;;;1.00;0.83;;;10.70;91.90;;;;;;2049386;28;20182;-65
2021/08/10 04:26:44;;;;;;;0.60;0.60;;;10.80;91.80;;;;;;2049351;28;20183;-65
2021/08/10 04:27:45;;;;;;;1.50;0.90;;;10.80;91.80;;;;;;2049223;28;20592;-64
2021/08/10 04:28:45;;;;;;;1.10;0.87;;;10.80;91.80;;;;;;2049369;28;20665;-65
2021/08/10 04:29:47;;;;;;;0.47;0.43;;;10.90;91.80;;;;;;2049328;28;20238;-65
2021/08/10 04:30:48;;;;;;;0.40;0.40;;;10.90;91.70;;;;;;2049333;28;20638;-65
2021/08/10 04:31:49;;;;;;;0.70;0.65;;;11.00;91.70;;;;;;2049325;28;20709;-64
2021/08/10 04:32:50;;;;;;;0.60;0.60;;;11.00;91.70;;;;;;2048593;29;20299;-65
2021/08/10 04:33:50;;;;;;;0.50;0.50;;;11.10;91.70;;;;;;2049541;29;20230;-65
2021/08/10 04:34:51;;;;;;;0.93;0.93;;;11.20;91.60;;;;;;2050007;28;20598;-65
2021/08/10 04:35:52;;;;;;;1.80;0.87;;;11.20;91.50;;;;;;2050435;28;20184;-65
2021/08/10 04:36:52;;;;;;;0.43;0.43;;;11.30;91.40;;;;;;2050188;28;20663;-65
2021/08/10 04:37:53;;;;;;;1.77;1.47;;;11.30;91.40;;;;;;2049509;28;20222;-65
2021/08/10 04:38:54;;;;;;;0.70;0.70;;;11.30;91.40;;;;;;2048724;29;20206;-66
2021/08/10 04:39:55;;;;;;;0.60;0.60;;;11.40;91.40;;;;;;2049322;28;20183;-65
2021/08/10 04:40:55;;;;;;;0.50;0.50;;;11.40;91.40;;;;;;2049297;28;20254;-65
2021/08/10 04:41:56;;;;;;;0.40;0.40;;;11.50;91.30;;;;;;2049089;28;20200;-65
2021/08/10 04:42:58;;;;;;;1.43;0.87;;;11.60;91.10;;;;;;2049231;28;20172;-65
2021/08/10 04:43:59;;;;;;;0.80;0.80;;;11.70;91.00;;;;;;2049236;28;20186;-65
2021/08/10 04:45:00;;;;;;;0.50;0.50;;;11.70;91.00;;;;;;2049040;28;20183;-65
2021/08/10 04:46:01;;;;;;;0.70;0.70;;;11.80;91.10;;;;;;2049259;28;20547;-65
2021/08/10 04:47:02;;;;;;;0.47;0.47;;;11.90;91.00;;;;;;2049133;28;20184;-66
2021/08/10 04:48:03;;;;;;;0.37;0.37;;;11.90;90.80;;;;;;2049143;28;20210;-66
2021/08/10 04:49:05;;;;;;;0.47;0.47;;;12.00;90.70;;;;;;2049171;28;20209;-66
2021/08/10 04:50:06;;;;;;;0.82;0.82;;;12.00;90.70;;;;;;2049039;28;20211;-65
2021/08/10 04:51:07;;;;;;;1.08;0.85;;;12.10;90.40;;;;;;2048460;29;20686;-65
2021/08/10 04:52:07;;;;;;;1.90;0.90;;;12.10;90.40;;;;;;2048550;28;20203;-65
2021/08/10 04:53:08;;;;;;;0.50;0.50;;;12.20;90.40;;;;;;2049164;28;20544;-67
2021/08/10 04:54:10;;;;;;;0.87;0.73;;;12.20;90.30;;;;;;2048424;28;20184;-65
2021/08/10 04:55:12;;;;;;;1.35;1.10;;;12.30;89.30;;;;;;2048645;29;20191;-65
2021/08/10 04:56:13;;;;;;;0.90;0.90;;;12.30;88.80;;;;;;2044143;28;20207;-66
2021/08/10 04:57:13;;;;;;;0.57;0.57;;;12.30;88.20;;;;;;2040559;29;20248;-65
2021/08/10 04:58:14;;;;;;;1.77;1.13;;;12.40;87.70;;;;;;2041052;29;20196;-65
2021/08/10 04:59:15;;;;;;;1.10;1.10;;;12.50;87.90;;;;;;2040980;29;20188;-65
2021/08/10 05:00:16;;;;;;;0.83;0.83;;;12.50;87.50;;;;;;2041086;29;20700;-65
2021/08/10 05:01:17;;;;;;;0.52;0.52;;;12.50;87.70;;;;;;2040945;29;20211;-65
2021/08/10 05:02:18;;;;;;;8.68;0.88;;;12.60;87.90;;;;;;2040862;29;20215;-65
2021/08/10 05:03:19;;;;;;;0.60;0.60;;;12.60;87.50;;;;;;2040946;29;20244;-65
2021/08/10 05:04:19;;;;;;;1.00;0.97;;;12.70;87.00;;;;;;2041004;29;20235;-65
2021/08/10 05:05:20;;;;;;;0.50;0.50;;;12.70;86.10;;;;;;2041088;29;20640;-65
2021/08/10 05:06:21;;;;;;;1.00;0.80;;;12.70;86.50;;;;;;2040343;29;20231;-65
2021/08/10 05:07:21;;;;;;;0.50;0.50;;;12.80;86.00;;;;;;2040052;29;20177;-65
2021/08/10 05:08:22;;;;;;;1.53;0.87;;;12.80;85.00;;;;;;2040971;29;20188;-65
2021/08/10 05:09:23;;;;;;;0.57;0.57;;;12.80;85.10;;;;;;2040667;29;20256;-65
2021/08/10 05:10:23;;;;;;;1.23;1.00;;;12.90;85.20;;;;;;2040804;29;20652;-65
2021/08/10 05:11:24;;;;;;;1.80;1.20;;;13.00;83.90;;;;;;2040851;29;20184;-65
2021/08/10 05:12:25;;;;;;;2.03;0.40;;;12.90;85.60;;;;;;2040769;29;20208;-65
2021/08/10 05:13:26;;;;;;;0.40;0.40;;;12.90;84.10;;;;;;2040785;29;20189;-65
2021/08/10 05:14:26;;;;;;;0.53;0.53;;;13.00;84.30;;;;;;2040827;29;20343;-65
2021/08/10 05:15:28;;;;;;;0.73;0.70;;;13.00;84.00;;;;;;2040852;29;20231;-66
2021/08/10 05:16:28;;;;;;;0.50;0.50;;;13.10;84.20;;;;;;2040812;29;20184;-65
2021/08/10 05:17:29;;;;;;;0.40;0.40;;;13.20;83.30;;;;;;2039768;29;20195;-65
2021/08/10 05:18:30;;;;;;;0.67;0.63;;;13.20;83.20;;;;;;2040196;29;20187;-65
2021/08/10 05:19:31;;;;;;;1.90;0.97;;;13.20;82.40;;;;;;2040367;29;20651;-65
2021/08/10 05:20:32;;;;;;;0.57;0.57;;;13.20;83.10;;;;;;2040303;29;20590;-65
2021/08/10 05:21:32;;;;;;;0.60;0.50;;;13.20;83.10;;;;;;2040642;29;20183;-65
2021/08/10 05:22:33;;;;;;;0.40;0.40;;;13.20;83.40;;;;;;2040605;29;20184;-65
2021/08/10 05:23:35;;;;;;;0.40;0.40;;;13.30;83.70;;;;;;2040672;29;20239;-66
2021/08/10 05:24:35;;;;;;;0.60;0.60;;;13.30;83.10;;;;;;2040765;29;20674;-65
2021/08/10 05:25:37;;;;;;;1.33;0.83;;;13.30;83.10;;;;;;2040740;29;20180;-65
2021/08/10 05:26:38;;;;;;;0.85;0.85;;;13.40;82.30;;;;;;2040689;29;20188;-65
2021/08/10 05:27:38;;;;;;;0.47;0.47;;;13.40;82.00;;;;;;2040354;29;20180;-65
2021/08/10 05:28:39;;;;;;;1.60;0.70;;;13.40;81.50;;;;;;2040814;29;20192;-64
2021/08/10 05:29:40;;;;;;;0.30;0.30;;;13.40;82.40;;;;;;2040400;29;20180;-65
2021/08/10 05:30:40;;;;;;;2.80;1.40;;;13.50;82.50;;;;;;2040807;29;20181;-65